createdAt,value
2019-04-29T00:02:13.814Z,13.00
2019-04-29T00:04:55.793Z,12.95
2019-04-29T00:07:35.765Z,13.40
2019-04-29T00:10:18.162Z,13.23
2019-04-29T00:13:01.220Z,12.00
2019-04-29T00:18:59.201Z,12.23
2019-04-29T00:21:40.808Z,14.50
2019-04-29T00:24:20.630Z,15.93
2019-04-29T00:27:01.530Z,14.13
2019-04-29T00:29:42.430Z,14.03
2019-04-29T00:32:24.191Z,12.80
2019-04-29T00:35:05.402Z,14.60
2019-04-29T00:41:39.115Z,13.03
2019-04-29T00:44:20.909Z,12.87
2019-04-29T00:46:48.066Z,12.80
2019-04-29T00:49:34.733Z,13.15
2019-04-29T00:52:14.291Z,15.55
2019-04-29T00:57:52.854Z,13.28
2019-04-29T01:00:37.155Z,12.93
2019-04-29T01:03:17.878Z,13.90
2019-04-29T01:06:05.564Z,13.55
2019-04-29T01:08:54.114Z,14.33
2019-04-29T01:11:34.456Z,14.10
2019-04-29T01:14:14.455Z,13.10
2019-04-29T01:16:54.534Z,14.40
2019-04-29T01:19:34.584Z,15.20
2019-04-29T01:22:15.730Z,15.20
2019-04-29T01:24:56.687Z,14.40
2019-04-29T01:27:43.454Z,14.85
2019-04-29T01:30:24.963Z,16.15
2019-04-29T01:33:06.040Z,17.27
2019-04-29T01:35:49.034Z,13.50
2019-04-29T01:38:30.189Z,14.95
2019-04-29T01:41:15.374Z,14.47
2019-04-29T01:44:04.863Z,14.90
2019-04-29T01:46:48.572Z,15.75
2019-04-29T01:49:28.519Z,16.48
2019-04-29T01:52:09.918Z,15.60
2019-04-29T01:54:50.107Z,13.88
2019-04-29T01:57:30.182Z,14.90
2019-04-29T02:00:12.456Z,16.07
2019-04-29T02:02:53.290Z,14.30
2019-04-29T02:08:56.730Z,16.30
2019-04-29T02:11:25.809Z,16.35
2019-04-29T02:14:08.118Z,14.07
2019-04-29T02:16:51.405Z,17.67
2019-04-29T02:19:31.384Z,17.25
2019-04-29T02:22:37.257Z,14.25
2019-04-29T02:25:24.985Z,14.15
2019-04-29T02:28:06.382Z,13.25
2019-04-29T02:30:47.874Z,14.45
2019-04-29T02:33:28.447Z,18.05
2019-04-29T02:36:09.401Z,14.05
2019-04-29T02:39:09.804Z,16.05
2019-04-29T02:45:11.163Z,13.60
2019-04-29T02:47:50.860Z,13.62
2019-04-29T02:50:31.001Z,14.80
2019-04-29T02:53:10.734Z,15.00
2019-04-29T02:55:52.641Z,14.30
2019-04-29T02:58:41.318Z,15.05
2019-04-29T03:05:26.682Z,16.05
2019-04-29T03:08:06.802Z,19.35
2019-04-29T03:10:50.774Z,15.25
2019-04-29T03:13:30.838Z,17.07
2019-04-29T03:16:12.023Z,16.90
2019-04-29T03:18:58.139Z,18.02
2019-04-29T03:21:44.641Z,19.07
2019-04-29T03:24:25.294Z,16.10
2019-04-29T03:27:06.300Z,17.17
2019-04-29T03:29:46.676Z,15.85
2019-04-29T03:32:27.682Z,17.32
2019-04-29T03:35:09.174Z,17.75
2019-04-29T03:37:49.790Z,19.82
2019-04-29T03:40:29.371Z,19.52
2019-04-29T03:43:09.551Z,20.10
2019-04-29T03:45:49.003Z,20.65
2019-04-29T03:48:29.201Z,18.27
2019-04-29T03:51:10.293Z,19.52
2019-04-29T03:53:51.376Z,16.97
2019-04-29T03:56:32.511Z,21.48
2019-04-29T03:59:13.738Z,22.13
2019-04-29T04:05:29.632Z,18.92
2019-04-29T04:08:39.793Z,19.23
2019-04-29T04:11:20.731Z,19.98
2019-04-29T04:14:00.476Z,19.07
2019-04-29T04:17:00.609Z,19.37
2019-04-29T04:19:41.642Z,19.57
2019-04-29T04:22:22.755Z,20.35
2019-04-29T04:25:06.055Z,21.15
2019-04-29T04:27:47.289Z,19.77
2019-04-29T04:30:28.578Z,21.70
2019-04-29T04:33:09.794Z,16.62
2019-04-29T04:35:50.747Z,16.50
2019-04-29T04:38:30.500Z,19.17
2019-04-29T04:41:11.153Z,21.55
2019-04-29T04:43:50.720Z,21.95
2019-04-29T04:46:30.819Z,17.32
2019-04-29T04:49:10.981Z,17.92
2019-04-29T04:51:37.891Z,18.17
2019-04-29T04:54:24.687Z,18.07
2019-04-29T04:57:04.275Z,16.85
2019-04-29T04:59:45.263Z,20.48
2019-04-29T05:02:28.823Z,15.93
2019-04-29T05:05:10.366Z,14.73
2019-04-29T05:07:51.485Z,16.65
2019-04-29T05:10:32.090Z,18.55
2019-04-29T05:13:26.974Z,16.62
2019-04-29T05:15:56.573Z,19.23
2019-04-29T05:18:36.648Z,14.80
2019-04-29T05:21:16.643Z,22.80
2019-04-29T05:23:56.763Z,21.12
2019-04-29T05:26:36.327Z,23.33
2019-04-29T05:29:16.427Z,15.10
2019-04-29T05:31:57.197Z,23.92
2019-04-29T05:34:48.000Z,15.95
2019-04-29T05:40:58.430Z,16.03
2019-04-29T05:44:06.151Z,13.60
2019-04-29T05:47:06.927Z,11.67
2019-04-29T05:50:06.813Z,14.27
2019-04-29T05:55:48.394Z,13.60
2019-04-29T05:58:32.813Z,20.07
2019-04-29T06:01:17.756Z,12.03
2019-04-29T06:03:58.795Z,12.53
2019-04-29T06:06:40.607Z,11.77
2019-04-29T06:09:21.958Z,16.10
2019-04-29T06:12:05.403Z,11.97
2019-04-29T06:14:45.267Z,13.00
2019-04-29T06:17:25.548Z,12.90
2019-04-29T06:20:06.009Z,13.50
2019-04-29T06:22:46.934Z,12.97
2019-04-29T06:25:27.860Z,13.40
2019-04-29T06:28:09.038Z,13.73
2019-04-29T06:30:51.828Z,14.00
2019-04-29T06:33:32.338Z,14.60
2019-04-29T06:36:20.007Z,15.83
2019-04-29T06:39:08.562Z,17.80
2019-04-29T06:41:46.957Z,20.67
2019-04-29T06:44:33.845Z,20.63
2019-04-29T06:47:16.874Z,17.20
2019-04-29T06:49:55.346Z,19.43
2019-04-29T06:52:35.518Z,17.50
2019-04-29T06:55:20.433Z,24.73
2019-04-29T06:58:01.539Z,21.50
2019-04-29T07:00:42.845Z,21.67
2019-04-29T07:03:25.433Z,20.53
2019-04-29T07:06:06.996Z,21.07
2019-04-29T07:08:48.072Z,20.10
2019-04-29T07:11:31.770Z,20.83
2019-04-29T07:14:10.350Z,21.07
2019-04-29T07:16:50.615Z,21.03
2019-04-29T07:19:30.184Z,20.47
2019-04-29T07:22:10.293Z,20.40
2019-04-29T07:24:50.194Z,22.60
2019-04-29T07:27:34.437Z,21.97
2019-04-29T07:30:14.466Z,21.97
2019-04-29T07:32:59.041Z,21.70
2019-04-29T07:35:42.944Z,21.90
2019-04-29T07:38:22.817Z,18.77
2019-04-29T07:41:04.939Z,18.57
2019-04-29T07:43:46.285Z,17.87
2019-04-29T07:46:36.361Z,15.47
2019-04-29T07:49:33.522Z,18.60
2019-04-29T07:52:03.749Z,17.90
2019-04-29T07:54:55.218Z,18.23
2019-04-29T07:57:41.949Z,18.80
2019-04-29T08:00:23.047Z,19.87
2019-04-29T08:03:04.193Z,20.63
2019-04-29T08:06:13.263Z,20.17
2019-04-29T08:08:55.670Z,26.40
2019-04-29T08:11:42.905Z,21.33
2019-04-29T08:14:22.997Z,20.37
2019-04-29T08:16:51.774Z,21.70
2019-04-29T08:19:38.513Z,21.20
2019-04-29T08:22:22.839Z,21.10
2019-04-29T08:25:01.357Z,21.43
2019-04-29T08:27:43.795Z,21.57
2019-04-29T08:30:25.220Z,22.23
2019-04-29T08:33:11.987Z,19.97
2019-04-29T08:35:46.613Z,21.17
2019-04-29T08:38:42.843Z,18.63
2019-04-29T08:41:28.510Z,18.43
2019-04-29T08:47:30.460Z,18.73
2019-04-29T08:50:15.730Z,18.80
2019-04-29T08:55:54.331Z,21.47
2019-04-29T08:58:39.023Z,21.30
2019-04-29T09:01:18.748Z,21.93
2019-04-29T09:04:02.100Z,22.17
2019-04-29T09:06:44.226Z,21.97
2019-04-29T09:09:29.124Z,21.93
2019-04-29T09:12:06.022Z,23.10
2019-04-29T09:14:46.065Z,21.50
2019-04-29T09:17:26.065Z,18.90
2019-04-29T09:20:06.139Z,18.27
2019-04-29T09:26:15.392Z,23.47
2019-04-29T09:28:59.675Z,20.73
2019-04-29T09:31:42.134Z,20.93
2019-04-29T09:34:24.843Z,19.23
2019-04-29T09:37:05.581Z,18.93
2019-04-29T09:39:46.614Z,20.57
2019-04-29T09:42:50.315Z,19.70
2019-04-29T09:45:35.927Z,18.37
2019-04-29T09:48:15.760Z,16.33
2019-04-29T09:50:55.552Z,14.67
2019-04-29T09:53:35.587Z,15.07
2019-04-29T09:56:17.102Z,12.10
2019-04-29T09:59:17.860Z,12.50
2019-04-29T10:02:17.880Z,12.13
2019-04-29T10:05:24.109Z,12.07
2019-04-29T10:07:51.833Z,10.33
2019-04-29T10:10:38.925Z,10.00
2019-04-29T10:13:19.702Z,10.87
2019-04-29T10:19:41.947Z,10.07
2019-04-29T10:22:22.717Z,10.23
2019-04-29T10:25:03.758Z,9.10
2019-04-29T10:27:44.514Z,9.03
2019-04-29T10:30:31.102Z,8.70
2019-04-29T10:33:12.874Z,10.93
2019-04-29T10:35:52.486Z,9.77
2019-04-29T10:38:32.458Z,9.90
2019-04-29T10:44:30.518Z,10.00
2019-04-29T10:47:29.773Z,9.20
2019-04-29T10:50:17.167Z,11.10
2019-04-29T10:53:17.432Z,10.83
2019-04-29T10:56:01.073Z,10.90
2019-04-29T10:58:42.136Z,9.70
2019-04-29T11:01:29.261Z,10.17
2019-04-29T11:04:11.139Z,10.23
2019-04-29T11:06:52.404Z,10.63
2019-04-29T11:12:48.749Z,10.47
2019-04-29T11:15:36.597Z,9.70
2019-04-29T11:18:18.117Z,10.27
2019-04-29T11:27:20.353Z,10.57
2019-04-29T11:30:02.993Z,10.20
2019-04-29T11:32:47.810Z,11.10
2019-04-29T11:38:59.978Z,9.33
2019-04-29T11:41:41.098Z,10.63
2019-04-29T11:44:22.043Z,8.90
2019-04-29T11:47:03.458Z,9.23
2019-04-29T11:53:01.688Z,10.30
2019-04-29T11:55:52.455Z,8.97
2019-04-29T12:02:44.559Z,9.17
2019-04-29T12:05:28.779Z,9.03
2019-04-29T12:08:16.849Z,9.93
2019-04-29T12:11:06.700Z,9.00
2019-04-29T12:20:31.093Z,9.60
2019-04-29T12:23:15.702Z,9.60
2019-04-29T12:25:58.393Z,8.87
2019-04-29T12:28:42.257Z,9.20
2019-04-29T12:31:40.641Z,8.20
2019-04-29T12:34:39.797Z,9.30
2019-04-29T12:37:39.690Z,8.83
2019-04-29T12:44:02.528Z,6.93
2019-04-29T12:47:09.850Z,8.60
2019-04-29T12:52:53.114Z,6.17
2019-04-29T12:55:45.889Z,7.20
2019-04-29T12:58:24.187Z,6.27
2019-04-29T13:04:35.058Z,7.40
2019-04-29T13:07:42.891Z,7.20
2019-04-29T13:10:45.438Z,7.00
2019-04-29T13:13:56.549Z,5.90
2019-04-29T13:17:14.844Z,7.40
2019-04-29T13:20:01.997Z,7.23
2019-04-29T13:26:27.317Z,9.97
2019-04-29T13:29:01.077Z,6.53
2019-04-29T13:31:40.842Z,6.23
2019-04-29T13:37:21.154Z,5.53
2019-04-29T13:40:09.209Z,5.07
2019-04-29T13:42:57.767Z,4.80
2019-04-29T13:45:50.821Z,5.23
2019-04-29T13:52:09.553Z,4.80
2019-04-29T13:54:56.313Z,5.50
2019-04-29T13:57:45.129Z,6.30
2019-04-29T14:04:24.942Z,4.70
2019-04-29T14:07:25.518Z,4.33
2019-04-29T14:10:10.100Z,5.10
2019-04-29T14:12:54.351Z,4.93
2019-04-29T14:15:33.950Z,5.30
2019-04-29T14:18:13.762Z,4.40
2019-04-29T14:20:53.706Z,5.13
2019-04-29T14:23:34.860Z,4.83
2019-04-29T14:26:15.983Z,4.40
2019-04-29T14:28:57.081Z,5.20
2019-04-29T14:31:40.771Z,4.50
2019-04-29T14:34:30.524Z,4.67
2019-04-29T14:37:24.668Z,5.00
2019-04-29T14:40:02.804Z,4.97
2019-04-29T14:43:03.010Z,5.10
2019-04-29T14:46:03.533Z,4.73
2019-04-29T14:51:50.305Z,5.30
2019-04-29T14:54:31.459Z,5.60
2019-04-29T14:57:12.623Z,5.10
2019-04-29T14:59:53.944Z,4.77
2019-04-29T15:02:34.832Z,4.97
2019-04-29T15:05:15.728Z,5.17
2019-04-29T15:07:56.726Z,4.67
2019-04-29T15:10:38.719Z,4.43
2019-04-29T15:13:21.858Z,4.80
2019-04-29T15:19:13.158Z,5.30
2019-04-29T15:25:16.728Z,5.27
2019-04-29T15:27:56.187Z,5.90
2019-04-29T15:30:41.545Z,5.93
2019-04-29T15:33:21.431Z,6.17
2019-04-29T15:36:01.672Z,6.13
2019-04-29T15:38:41.478Z,5.47
2019-04-29T15:41:30.068Z,5.33
2019-04-29T15:44:07.564Z,7.47
2019-04-29T15:46:47.208Z,7.50
2019-04-29T15:49:27.970Z,6.37
2019-04-29T15:52:08.916Z,6.50
2019-04-29T15:54:50.904Z,7.37
2019-04-29T15:57:22.829Z,6.63
2019-04-29T16:03:37.994Z,8.10
2019-04-29T16:06:40.102Z,7.83
2019-04-29T16:15:48.466Z,8.03
2019-04-29T16:18:31.491Z,9.50
2019-04-29T16:21:12.638Z,9.43
2019-04-29T16:23:57.646Z,8.60
2019-04-29T16:26:36.226Z,7.87
2019-04-29T16:29:16.238Z,9.40
2019-04-29T16:32:02.183Z,8.50
2019-04-29T16:34:45.274Z,9.37
2019-04-29T16:37:24.932Z,8.50
2019-04-29T16:40:03.649Z,9.70
2019-04-29T16:45:51.963Z,9.30
2019-04-29T16:48:38.716Z,9.80
2019-04-29T16:51:19.826Z,10.57
2019-04-29T16:54:05.306Z,10.63
2019-04-29T16:56:45.820Z,9.70
2019-04-29T16:59:18.671Z,10.17
2019-04-29T17:02:06.015Z,9.73
2019-04-29T17:04:46.162Z,10.07
2019-04-29T17:07:26.222Z,10.10
2019-04-29T17:10:33.177Z,10.70
2019-04-29T17:13:23.481Z,11.43
2019-04-29T17:15:58.797Z,10.67
2019-04-29T17:18:41.110Z,11.00
2019-04-29T17:21:22.168Z,10.60
2019-04-29T17:24:03.058Z,12.43
2019-04-29T17:33:29.416Z,11.17
2019-04-29T17:36:09.113Z,11.13
2019-04-29T17:38:50.315Z,10.40
2019-04-29T17:41:31.843Z,11.23
2019-04-29T17:44:32.658Z,12.17
2019-04-29T17:47:33.625Z,10.90
2019-04-29T17:50:39.167Z,14.97
2019-04-29T17:57:25.614Z,11.93
2019-04-29T18:00:05.057Z,11.33
2019-04-29T18:06:24.137Z,12.90
2019-04-29T18:09:29.977Z,13.20
2019-04-29T18:15:57.763Z,13.97
2019-04-29T18:21:50.869Z,13.53
2019-04-29T18:27:53.114Z,15.63
2019-04-29T18:30:35.954Z,16.03
2019-04-29T18:33:23.432Z,15.70
2019-04-29T18:36:24.831Z,15.60
2019-04-29T18:39:06.098Z,16.13
2019-04-29T18:41:45.959Z,15.40
2019-04-29T18:44:26.189Z,15.57
2019-04-29T18:47:06.235Z,16.23
2019-04-29T18:49:47.333Z,16.77
2019-04-29T18:52:37.226Z,17.87
2019-04-29T18:55:28.145Z,16.27
2019-04-29T18:58:27.559Z,16.87
2019-04-29T19:01:07.598Z,18.00
2019-04-29T19:04:10.234Z,18.80
2019-04-29T19:06:51.220Z,19.97
2019-04-29T19:09:59.910Z,19.20
2019-04-29T19:12:58.216Z,18.57
2019-04-29T19:15:50.611Z,19.83
2019-04-29T19:18:31.688Z,20.07
2019-04-29T19:21:13.409Z,20.20
2019-04-29T19:23:57.394Z,18.80
2019-04-29T19:26:38.070Z,18.10
2019-04-29T19:29:17.786Z,20.57
2019-04-29T19:31:57.735Z,20.40
2019-04-29T19:34:42.824Z,20.33
2019-04-29T19:37:20.948Z,15.70
2019-04-29T19:40:02.109Z,17.07
2019-04-29T19:42:46.937Z,16.33
2019-04-29T19:45:27.239Z,16.33
2019-04-29T19:48:08.254Z,14.50
2019-04-29T19:50:49.605Z,13.50
2019-04-29T19:53:37.808Z,13.20
2019-04-29T19:56:20.922Z,12.40
2019-04-29T19:58:58.176Z,13.43
2019-04-29T20:01:38.623Z,12.83
2019-04-29T20:07:42.223Z,12.53
2019-04-29T20:10:20.831Z,13.40
2019-04-29T20:13:02.206Z,14.90
2019-04-29T20:22:30.687Z,14.93
2019-04-29T20:25:10.841Z,15.23
2019-04-29T20:28:03.498Z,16.40
2019-04-29T20:30:34.539Z,15.67
2019-04-29T20:33:16.185Z,18.33
2019-04-29T20:36:01.941Z,18.27
2019-04-29T20:38:40.535Z,15.80
2019-04-29T20:41:39.456Z,18.53
2019-04-29T20:44:05.869Z,15.93
2019-04-29T20:47:12.698Z,16.27
2019-04-29T20:49:30.965Z,14.60
2019-04-29T20:55:31.956Z,15.93
2019-04-29T20:58:12.942Z,18.93
2019-04-29T21:00:58.301Z,14.13
2019-04-29T21:03:40.519Z,19.60
2019-04-29T21:06:19.830Z,17.37
2019-04-29T21:09:02.124Z,16.63
2019-04-29T21:12:02.459Z,19.20
2019-04-29T21:14:50.270Z,20.10
2019-04-29T21:17:40.257Z,20.33
2019-04-29T21:20:12.317Z,19.13
2019-04-29T21:23:00.835Z,22.50
2019-04-29T21:26:05.424Z,22.37
2019-04-29T21:28:50.222Z,20.33
2019-04-29T21:31:38.777Z,19.20
2019-04-29T21:34:23.022Z,20.03
2019-04-29T21:40:42.037Z,20.83
2019-04-29T21:43:26.105Z,20.50
2019-04-29T21:46:06.589Z,19.37
2019-04-29T21:48:46.494Z,20.23
2019-04-29T21:51:27.976Z,20.30
2019-04-29T21:54:09.561Z,20.27
2019-04-29T21:56:52.377Z,19.40
2019-04-29T21:59:33.289Z,20.53
2019-04-29T22:02:15.324Z,20.83
2019-04-29T22:04:57.686Z,21.10
2019-04-29T22:07:47.601Z,23.10
2019-04-29T22:10:58.328Z,23.93
2019-04-29T22:13:47.139Z,23.63
2019-04-29T22:16:28.334Z,22.67
2019-04-29T22:19:09.979Z,21.47
2019-04-29T22:21:52.806Z,25.70
2019-04-29T22:24:35.644Z,22.63
2019-04-29T22:27:16.581Z,23.67
2019-04-29T22:29:57.883Z,26.77
2019-04-29T22:32:38.994Z,27.33
2019-04-29T22:35:48.066Z,24.53
2019-04-29T22:38:18.426Z,24.60
2019-04-29T22:44:32.825Z,25.63
2019-04-29T22:47:17.287Z,38.80
2019-04-29T22:49:58.783Z,24.43
2019-04-29T22:52:40.680Z,27.57
2019-04-29T22:55:20.770Z,26.10
2019-04-29T22:58:05.147Z,26.80
2019-04-29T23:00:42.294Z,29.07
2019-04-29T23:03:22.486Z,27.73
2019-04-29T23:06:06.905Z,24.70
2019-04-29T23:08:45.518Z,26.93
2019-04-29T23:11:26.576Z,27.93
2019-04-29T23:14:10.092Z,27.57
2019-04-29T23:16:50.790Z,26.90
2019-04-29T23:19:39.618Z,29.00
2019-04-29T23:22:48.207Z,26.97
2019-04-29T23:25:33.268Z,29.93
2019-04-29T23:28:12.876Z,27.40
2019-04-29T23:30:55.150Z,26.50
2019-04-29T23:33:36.102Z,26.83
2019-04-29T23:36:16.186Z,29.40
2019-04-29T23:38:56.693Z,33.23
2019-04-29T23:41:37.766Z,33.30
2019-04-29T23:44:18.887Z,32.50
2019-04-29T23:47:05.342Z,31.97
2019-04-29T23:49:48.254Z,31.13
2019-04-29T23:52:38.025Z,35.43
2019-04-29T23:55:29.283Z,36.70
2019-04-29T23:58:47.918Z,36.13
